Jrs Mira — V2FS4 — position and weather

sailwx.info

Track history (hours):
 
Tides and Currents Weather Stations Pressure Air Temp Water Temp Dewpoint Dewpoint Depression Visibility Wind Speed Wind Dir Waves Ship Positions

Jrs Mira

Last reported at 2014-Oct-25 12:25 UTC. Time now 2014-Oct-25 16:02 UTC.
Position N 50°32' E 000°02'.

Length 107 m; draft 8.4 m.

Type: Cargo ship. MMSI: 305780000.

Date/timePositionNaut miles runAvg speedWind from/ knotsBaromVisibWave heightAir tempDewpointWater temp
2014-Oct-25 12:25N 50°32' E 000°02'910.2
2014-Oct-25 11:30N 50°35' E 000°16'9 9.3
2014-Oct-25 10:33N 50°37' E 000°29'9 8.7
2014-Oct-25 09:33N 50°41' E 000°41'10 9.6
2014-Oct-25 08:33N 50°47' E 000°53'1111.2
2014-Oct-25 07:33N 50°54' E 001°07'1313.0
2014-Oct-25 06:33N 51°02' E 001°23'1312.6
2014-Oct-25 05:34N 51°10' E 001°38'1110.7
2014-Oct-25 04:34N 51°19' E 001°49'10 9.6
2014-Oct-25 03:34N 51°27' E 001°56'9 8.8
2014-Oct-25 02:34N 51°34' E 002°04'9 8.7
2014-Oct-25 01:31N 51°42' E 002°13'4711.0
2014-Oct-24 21:15N 52°28' E 002°14'2412.3
2014-Oct-24 19:16N 52°52' E 002°02'912.7
2014-Oct-24 18:34N 52°57' E 001°50'1211.9
2014-Oct-24 17:33N 53°06' E 001°36'1211.3
2014-Oct-24 16:30N 53°16' E 001°27'3510.4
2014-Oct-24 13:06N 53°44' E 000°51'5 9.8
2014-Oct-24 12:33N 53°48' E 000°45'9 9.4
2014-Oct-24 11:34N 53°55' E 000°34'10 9.5
2014-Oct-24 10:34N 54°02' E 000°23'9 9.4
2014-Oct-24 09:34N 54°09' E 000°12'9 8.6
2014-Oct-24 08:34N 54°15' E 000°02'1010.0
2014-Oct-24 07:34N 54°22' W 000°10'1110.6
2014-Oct-24 06:34N 54°30' W 000°23'1111.0
2014-Oct-24 05:33N 54°36' W 000°39'1111.6
2014-Oct-24 04:33N 54°39' W 000°58'10 0.8
2014-Oct-23 16:20N 54°35' W 001°15'0 0.0
2014-Oct-23 15:23N 54°35' W 001°15'0 0.0
2014-Oct-23 14:26N 54°35' W 001°15'0 0.0
2014-Oct-23 13:29N 54°35' W 001°15'0 0.0
2014-Oct-23 12:23N 54°35' W 001°15'0 0.0
2014-Oct-23 11:29N 54°35' W 001°15'0 0.0
2014-Oct-23 10:32N 54°35' W 001°15'0 0.0
2014-Oct-23 09:14N 54°35' W 001°15'0 0.0
2014-Oct-23 08:30N 54°35' W 001°15'0 0.0
2014-Oct-23 07:32N 54°35' W 001°15'0 0.0
2014-Oct-23 05:21N 54°35' W 001°15'0 0.0
2014-Oct-22 10:26N 54°35' W 001°15'0 0.0
2014-Oct-22 09:11N 54°35' W 001°15'0 0.0
2014-Oct-22 08:23N 54°35' W 001°15'0 0.0
2014-Oct-22 07:23N 54°35' W 001°15'5 0.1
2014-Oct-20 17:23N 54°39' W 001°08'4 4.4
2014-Oct-20 16:32N 54°40' W 001°02'6 6.2
2014-Oct-20 15:34N 54°39' W 000°52'12 8.8
2014-Oct-20 14:10N 54°35' W 000°32'710.9
2014-Oct-20 13:33N 54°30' W 000°24'1111.1
2014-Oct-20 12:33N 54°22' W 000°11'1111.0
2014-Oct-20 11:33N 54°14' E 000°02'1111.4
2014-Oct-20 10:33N 54°06' E 000°16'1212.0
2014-Oct-20 09:33N 53°57' E 000°29'1212.3
2014-Oct-20 08:33N 53°49' E 000°45'4811.7
2014-Oct-20 04:29N 53°11' E 001°33'1010.7
2014-Oct-20 03:33N 53°02' E 001°41'1110.8
2014-Oct-20 02:33N 52°56' E 001°55'2411.9
2014-Oct-20 00:33N 52°35' E 002°15'5012.2
2014-Oct-19 20:25N 51°47' E 002°35'1112.3
2014-Oct-19 19:33N 51°38' E 002°24'1212.2
2014-Oct-19 18:34N 51°28' E 002°13'1110.9
2014-Oct-19 17:33N 51°18' E 002°06'2110.6
2014-Oct-19 15:33N 51°04' E 001°42'1111.3
2014-Oct-19 14:33N 50°55' E 001°29'1211.5
2014-Oct-19 13:32N 50°44' E 001°23'1611.6
2014-Oct-19 12:11N 50°33' E 001°06'31611.9
2014-Oct-18 09:33N 48°09' W 006°05'  
2014-Oct-16 01:28N 38°37' W 009°25'8 8.7
2014-Oct-16 00:33N 38°41' W 009°16'3 3.4
2014-Oct-15 23:33N 38°41' W 009°12'0 0.0
2014-Oct-15 22:33N 38°41' W 009°12'0 0.0
2014-Oct-15 21:33N 38°41' W 009°12'0 0.0
2014-Oct-15 20:33N 38°41' W 009°12'0 0.0
2014-Oct-15 19:33N 38°41' W 009°12'0 0.1
2014-Oct-15 18:33N 38°41' W 009°12'1 0.5
2014-Oct-15 17:31N 38°41' W 009°11'0 0.0
2014-Oct-15 16:31N 38°41' W 009°11'0 0.0
2014-Oct-15 15:31N 38°41' W 009°11'0 0.0
2014-Oct-15 14:31N 38°41' W 009°11'0 0.0
2014-Oct-15 13:31N 38°41' W 009°11'0 0.0
2014-Oct-15 12:31N 38°41' W 009°11'  
Track history (hours):
 
Tides and Currents Weather Stations Pressure Air Temp Water Temp Dewpoint Dewpoint Depression Visibility Wind Speed Wind Dir Waves Ship Positions

Jrs Mira

Last reported at 2014-Oct-25 12:25 UTC. Time now 2014-Oct-25 16:02 UTC.
Position N 50°32' E 000°02'.

Length 107 m; draft 8.4 m.

Type: Cargo ship. MMSI: 305780000.

Date/timePositionNaut miles runAvg speedWind from/ knotsBaromVisibWave heightAir tempDewpointWater temp
2014-Oct-25 12:25N 50°32' E 000°02'910.2
2014-Oct-25 11:30N 50°35' E 000°16'9 9.3
2014-Oct-25 10:33N 50°37' E 000°29'9 8.7
2014-Oct-25 09:33N 50°41' E 000°41'10 9.6
2014-Oct-25 08:33N 50°47' E 000°53'1111.2
2014-Oct-25 07:33N 50°54' E 001°07'1313.0
2014-Oct-25 06:33N 51°02' E 001°23'1312.6
2014-Oct-25 05:34N 51°10' E 001°38'1110.7
2014-Oct-25 04:34N 51°19' E 001°49'10 9.6
2014-Oct-25 03:34N 51°27' E 001°56'9 8.8
2014-Oct-25 02:34N 51°34' E 002°04'9 8.7
2014-Oct-25 01:31N 51°42' E 002°13'4711.0
2014-Oct-24 21:15N 52°28' E 002°14'2412.3
2014-Oct-24 19:16N 52°52' E 002°02'912.7
2014-Oct-24 18:34N 52°57' E 001°50'1211.9
2014-Oct-24 17:33N 53°06' E 001°36'1211.3
2014-Oct-24 16:30N 53°16' E 001°27'3510.4
2014-Oct-24 13:06N 53°44' E 000°51'5 9.8
2014-Oct-24 12:33N 53°48' E 000°45'9 9.4
2014-Oct-24 11:34N 53°55' E 000°34'10 9.5
2014-Oct-24 10:34N 54°02' E 000°23'9 9.4
2014-Oct-24 09:34N 54°09' E 000°12'9 8.6
2014-Oct-24 08:34N 54°15' E 000°02'1010.0
2014-Oct-24 07:34N 54°22' W 000°10'1110.6
2014-Oct-24 06:34N 54°30' W 000°23'1111.0
2014-Oct-24 05:33N 54°36' W 000°39'1111.6
2014-Oct-24 04:33N 54°39' W 000°58'10 0.8
2014-Oct-23 16:20N 54°35' W 001°15'0 0.0
2014-Oct-23 15:23N 54°35' W 001°15'0 0.0
2014-Oct-23 14:26N 54°35' W 001°15'0 0.0
2014-Oct-23 13:29N 54°35' W 001°15'0 0.0
2014-Oct-23 12:23N 54°35' W 001°15'0 0.0
2014-Oct-23 11:29N 54°35' W 001°15'0 0.0
2014-Oct-23 10:32N 54°35' W 001°15'0 0.0
2014-Oct-23 09:14N 54°35' W 001°15'0 0.0
2014-Oct-23 08:30N 54°35' W 001°15'0 0.0
2014-Oct-23 07:32N 54°35' W 001°15'0 0.0
2014-Oct-23 05:21N 54°35' W 001°15'0 0.0
2014-Oct-22 10:26N 54°35' W 001°15'0 0.0
2014-Oct-22 09:11N 54°35' W 001°15'0 0.0
2014-Oct-22 08:23N 54°35' W 001°15'0 0.0
2014-Oct-22 07:23N 54°35' W 001°15'5 0.1
2014-Oct-20 17:23N 54°39' W 001°08'4 4.4
2014-Oct-20 16:32N 54°40' W 001°02'6 6.2
2014-Oct-20 15:34N 54°39' W 000°52'12 8.8
2014-Oct-20 14:10N 54°35' W 000°32'710.9
2014-Oct-20 13:33N 54°30' W 000°24'1111.1
2014-Oct-20 12:33N 54°22' W 000°11'1111.0
2014-Oct-20 11:33N 54°14' E 000°02'1111.4
2014-Oct-20 10:33N 54°06' E 000°16'1212.0
2014-Oct-20 09:33N 53°57' E 000°29'1212.3
2014-Oct-20 08:33N 53°49' E 000°45'4811.7
2014-Oct-20 04:29N 53°11' E 001°33'1010.7
2014-Oct-20 03:33N 53°02' E 001°41'1110.8
2014-Oct-20 02:33N 52°56' E 001°55'2411.9
2014-Oct-20 00:33N 52°35' E 002°15'5012.2
2014-Oct-19 20:25N 51°47' E 002°35'1112.3
2014-Oct-19 19:33N 51°38' E 002°24'1212.2
2014-Oct-19 18:34N 51°28' E 002°13'1110.9
2014-Oct-19 17:33N 51°18' E 002°06'2110.6
2014-Oct-19 15:33N 51°04' E 001°42'1111.3
2014-Oct-19 14:33N 50°55' E 001°29'1211.5
2014-Oct-19 13:32N 50°44' E 001°23'1611.6
2014-Oct-19 12:11N 50°33' E 001°06'31611.9
2014-Oct-18 09:33N 48°09' W 006°05'  
2014-Oct-16 01:28N 38°37' W 009°25'8 8.7
2014-Oct-16 00:33N 38°41' W 009°16'3 3.4
2014-Oct-15 23:33N 38°41' W 009°12'0 0.0
2014-Oct-15 22:33N 38°41' W 009°12'0 0.0
2014-Oct-15 21:33N 38°41' W 009°12'0 0.0
2014-Oct-15 20:33N 38°41' W 009°12'0 0.0
2014-Oct-15 19:33N 38°41' W 009°12'0 0.1
2014-Oct-15 18:33N 38°41' W 009°12'1 0.5
2014-Oct-15 17:31N 38°41' W 009°11'0 0.0
2014-Oct-15 16:31N 38°41' W 009°11'0 0.0
2014-Oct-15 15:31N 38°41' W 009°11'0 0.0
2014-Oct-15 14:31N 38°41' W 009°11'0 0.0
2014-Oct-15 13:31N 38°41' W 009°11'0 0.0
2014-Oct-15 12:31N 38°41' W 009°11'  

Dump ship's entire track history